Time;durP1;ratioP1;P1;durP2;ratioP2;P2;SDS_P1;SDS_P2;PMS_P1;PMS_P2;Temp;Humidity;BMP_temperature;BMP_pressure;BME280_temperature;BME280_humidity;BME280_pressure;Samples;Min_cycle;Max_cycle;Signal;HPM_P1;HPM_P2
2023/08/29 00:02:31;;;;;;;5.35;3.35;;;14.70;88.60;;;16.38;59.96;97013.56;5010722;28;20046;-53
2023/08/29 00:04:59;;;;;;;4.78;3.40;;;14.70;88.50;;;16.40;59.88;97016.00;5011785;28;20416;-53
2023/08/29 00:07:26;;;;;;;4.05;3.47;;;14.70;88.50;;;16.48;59.62;97031.91;5011930;28;20046;-54
2023/08/29 00:09:54;;;;;;;7.78;3.42;;;14.80;88.00;;;16.50;59.46;97029.81;5011709;28;20094;-53
2023/08/29 00:12:22;;;;;;;6.15;3.58;;;14.80;88.30;;;16.48;59.42;97027.34;5011750;28;20057;-53
2023/08/29 00:14:50;;;;;;;5.65;3.90;;;14.80;87.00;;;16.48;59.65;97032.72;5012002;28;20053;-54
2023/08/29 00:17:18;;;;;;;6.63;3.70;;;14.70;87.60;;;16.45;59.59;97026.94;5011562;28;20041;-53
2023/08/29 00:19:45;;;;;;;4.25;3.58;;;14.80;88.00;;;16.47;59.60;97033.75;5010893;28;20417;-54
2023/08/29 00:22:13;;;;;;;5.63;3.65;;;14.80;87.90;;;16.40;59.81;97032.13;5011841;28;20098;-55
2023/08/29 00:24:44;;;;;;;4.43;3.58;;;14.70;87.90;;;16.44;59.74;97023.44;5011564;28;20038;-56
2023/08/29 00:27:11;;;;;;;3.72;3.17;;;14.80;88.00;;;16.43;59.63;97018.28;5011275;28;20068;-52
2023/08/29 00:29:39;;;;;;;4.45;3.65;;;14.70;87.30;;;16.42;59.74;97009.41;5026924;28;20513;-53
2023/08/29 00:32:07;;;;;;;4.80;3.80;;;14.80;87.90;;;16.46;59.78;97015.13;5026292;28;20046;-54
2023/08/29 00:34:34;;;;;;;4.47;3.40;;;14.80;88.10;;;16.47;59.64;97014.13;5016391;28;20523;-55
2023/08/29 00:37:02;;;;;;;5.95;3.88;;;14.80;87.90;;;16.46;59.70;97012.44;5011283;28;20053;-50
2023/08/29 00:39:30;;;;;;;4.45;3.65;;;14.70;87.90;;;16.38;59.93;97012.69;5006983;28;20042;-51
2023/08/29 00:41:57;;;;;;;6.93;4.40;;;14.70;88.80;;;16.35;60.03;97024.72;5007348;28;20402;-54
2023/08/29 00:44:25;;;;;;;7.85;4.03;;;14.70;89.20;;;16.39;60.15;97019.75;5011349;28;20041;-51
2023/08/29 00:46:53;;;;;;;5.60;4.95;;;14.70;89.20;;;16.32;60.38;97023.28;5009627;28;20057;-54
2023/08/29 00:49:25;;;;;;;4.85;4.28;;;14.60;89.90;;;16.31;60.52;97027.00;5009959;28;20061;-54
2023/08/29 00:51:53;;;;;;;6.10;4.18;;;14.60;90.10;;;16.37;60.45;97032.56;5009662;28;20045;-53
2023/08/29 00:54:21;;;;;;;6.45;4.53;;;14.70;89.90;;;16.41;60.43;97026.53;5001798;28;20057;-54
2023/08/29 00:56:49;;;;;;;5.95;4.40;;;14.80;89.70;;;16.43;60.67;97024.47;5011065;28;20044;-54
2023/08/29 00:59:17;;;;;;;4.88;4.38;;;14.80;89.80;;;16.42;60.43;97028.19;5026393;28;20053;-54
2023/08/29 01:01:46;;;;;;;5.00;4.50;;;14.80;89.90;;;16.46;60.53;97028.56;5009750;28;20046;-54
2023/08/29 01:04:14;;;;;;;5.47;4.72;;;14.80;90.60;;;16.44;60.52;97033.34;5025877;28;20492;-55
2023/08/29 01:06:42;;;;;;;6.90;4.57;;;14.80;89.90;;;16.34;60.78;97028.41;5011091;28;20044;-53
2023/08/29 01:09:10;;;;;;;5.00;4.40;;;14.70;90.50;;;16.28;61.06;97032.78;4993614;28;20053;-54
2023/08/29 01:12:01;;;;;;;6.72;4.85;;;14.60;91.00;;;16.27;61.38;97024.94;5025972;28;20046;-53
2023/08/29 01:14:57;;;;;;;6.63;4.90;;;14.60;91.70;;;16.27;61.38;97031.13;5004321;28;20433;-52
2023/08/29 01:17:50;;;;;;;7.43;4.30;;;14.60;91.90;;;16.30;61.27;97024.50;4994990;28;20049;-55
2023/08/29 01:20:18;;;;;;;5.72;4.75;;;14.60;91.60;;;16.24;61.41;97018.13;5009912;28;20065;-51
2023/08/29 01:23:15;;;;;;;7.43;5.18;;;14.60;92.00;;;16.19;61.69;97023.31;5009391;28;20061;-54
2023/08/29 01:26:15;;;;;;;5.90;4.72;;;14.60;91.40;;;16.12;61.80;97023.34;4988569;28;20421;-54
2023/08/29 01:28:45;;;;;;;8.77;5.80;;;14.50;92.10;;;16.20;61.76;97024.97;5004564;28;20054;-55
2023/08/29 01:31:13;;;;;;;8.55;5.68;;;14.60;92.60;;;16.17;61.79;97019.19;5010056;28;20053;-53
2023/08/29 01:33:41;;;;;;;6.15;5.30;;;14.60;92.40;;;16.24;61.55;97025.38;5013256;28;20387;-54
2023/08/29 01:36:09;;;;;;;7.40;5.85;;;14.60;92.30;;;16.27;61.68;97017.72;5013454;28;20513;-54
2023/08/29 01:38:36;;;;;;;7.57;5.60;;;14.60;92.50;;;16.30;61.54;97022.66;5014658;28;20034;-52
2023/08/29 01:41:05;;;;;;;9.70;5.95;;;14.70;92.40;;;16.31;61.55;97024.31;5014275;28;20044;-54
2023/08/29 01:43:34;;;;;;;7.93;6.05;;;14.60;92.00;;;16.33;61.71;97024.91;5022135;28;20049;-53
2023/08/29 01:46:01;;;;;;;6.63;5.20;;;14.70;92.50;;;16.28;61.93;97029.28;5014673;28;20034;-50
2023/08/29 01:48:31;;;;;;;7.68;5.50;;;14.70;92.00;;;16.28;61.73;97013.97;5013890;28;20053;-55
2023/08/29 01:50:59;;;;;;;7.05;5.57;;;14.70;92.20;;;16.36;61.74;97015.59;5012962;28;20041;-50
2023/08/29 01:53:27;;;;;;;6.88;5.53;;;14.80;92.00;;;16.34;61.57;97012.31;5028989;28;20061;-53
2023/08/29 01:55:56;;;;;;;6.40;5.25;;;14.70;91.50;;;16.33;61.81;97010.66;5013250;28;20053;-52
2023/08/29 01:58:24;;;;;;;6.03;5.25;;;14.70;91.90;;;16.27;61.84;97004.28;5029502;28;20053;-52
2023/08/29 02:00:53;;;;;;;6.13;4.97;;;14.70;92.10;;;16.31;61.49;97008.19;5012862;28;20041;-53
2023/08/29 02:03:23;;;;;;;6.00;5.40;;;14.70;92.30;;;16.33;61.61;97008.78;5004367;28;20506;-54
2023/08/29 02:05:51;;;;;;;6.50;5.30;;;14.70;92.20;;;16.29;61.83;97004.88;5029728;28;20501;-55
2023/08/29 02:08:20;;;;;;;5.85;5.03;;;14.60;92.50;;;16.32;61.82;97006.31;5013981;28;20050;-53
2023/08/29 02:10:48;;;;;;;7.28;5.90;;;14.60;92.60;;;16.35;61.93;97000.53;5028954;28;20140;-54
2023/08/29 02:13:16;;;;;;;8.93;5.78;;;14.70;92.60;;;16.30;61.80;96997.66;5020677;28;20076;-52
2023/08/29 02:15:44;;;;;;;6.38;5.32;;;14.60;92.50;;;16.29;61.88;96999.53;5029313;28;20429;-52
2023/08/29 02:18:11;;;;;;;7.95;5.43;;;14.60;93.20;;;16.35;61.83;97000.53;5029258;28;20536;-54
2023/08/29 02:20:40;;;;;;;7.78;5.35;;;14.60;93.10;;;16.38;61.67;97001.97;5028724;28;20439;-55
2023/08/29 02:23:10;;;;;;;8.93;5.97;;;14.70;93.10;;;16.37;61.96;96992.28;5012437;28;20034;-54
2023/08/29 02:25:38;;;;;;;9.77;5.70;;;14.70;93.30;;;16.36;62.08;96995.97;5014250;28;20045;-52
2023/08/29 02:28:06;;;;;;;7.50;6.07;;;14.70;93.60;;;16.33;62.00;96995.38;5029281;28;20429;-55
2023/08/29 02:30:37;;;;;;;7.72;6.18;;;14.60;93.70;;;16.27;62.20;96982.78;5027786;28;20090;-54
2023/08/29 02:33:05;;;;;;;6.53;5.68;;;14.50;94.20;;;16.23;62.46;96988.81;5028543;28;20478;-50
2023/08/29 02:35:33;;;;;;;9.65;5.82;;;14.50;94.60;;;16.22;62.43;96985.28;5013650;28;20045;-51
2023/08/29 02:38:00;;;;;;;7.95;6.30;;;14.50;94.70;;;16.11;62.83;96981.41;5028405;28;20050;-55
2023/08/29 02:40:33;;;;;;;7.70;6.80;;;14.40;95.20;;;16.18;62.75;96985.94;5028821;28;20409;-54
2023/08/29 02:43:00;;;;;;;7.93;6.13;;;14.50;95.30;;;16.20;62.63;96982.00;5019405;28;20038;-55
2023/08/29 02:45:28;;;;;;;7.50;6.70;;;14.50;95.10;;;16.23;62.47;96986.94;5013338;28;20041;-53
2023/08/29 02:47:56;;;;;;;7.65;6.18;;;14.50;95.40;;;16.26;62.54;96989.19;5013633;28;20053;-52
2023/08/29 02:50:23;;;;;;;9.43;6.80;;;14.60;95.00;;;16.31;62.48;96986.69;5028677;28;20050;-55
2023/08/29 02:52:51;;;;;;;7.47;6.38;;;14.60;94.60;;;16.33;62.64;96994.56;5013303;28;20053;-53
2023/08/29 02:55:19;;;;;;;7.43;6.53;;;14.70;94.30;;;16.27;62.67;96982.78;5020069;28;20058;-51
2023/08/29 02:57:47;;;;;;;8.63;6.93;;;14.60;94.20;;;16.17;62.84;96982.44;5020317;28;20060;-53
2023/08/29 03:00:15;;;;;;;8.20;6.68;;;14.50;94.90;;;16.17;62.90;96979.75;5013053;28;20413;-54
2023/08/29 03:02:43;;;;;;;9.65;7.15;;;14.50;95.00;;;16.10;62.97;96976.25;5008055;28;20047;-54
2023/08/29 03:05:11;;;;;;;7.95;6.60;;;14.50;95.50;;;16.06;63.27;96977.72;5007925;28;20041;-54
2023/08/29 03:07:38;;;;;;;10.52;7.47;;;14.40;95.90;;;16.07;63.03;96974.84;5012670;28;20038;-55
2023/08/29 03:10:06;;;;;;;8.65;7.47;;;14.40;96.00;;;16.02;63.48;96977.31;5012896;28;20481;-52
2023/08/29 03:12:34;;;;;;;8.43;6.93;;;14.40;96.20;;;15.94;63.69;96977.56;5011239;28;20056;-55
2023/08/29 03:15:02;;;;;;;11.50;7.28;;;14.30;97.10;;;15.97;63.76;96981.66;5011609;28;20053;-52
2023/08/29 03:17:29;;;;;;;9.90;8.23;;;14.30;97.20;;;16.03;63.49;96980.81;5019756;28;20110;-52
2023/08/29 03:19:57;;;;;;;10.23;7.75;;;14.40;96.80;;;16.03;63.66;96978.13;5028022;28;20517;-52
2023/08/29 03:22:25;;;;;;;9.90;7.85;;;14.40;96.60;;;15.88;64.23;96967.69;5026911;28;20046;-54
2023/08/29 03:24:52;;;;;;;10.98;8.07;;;14.30;97.70;;;15.78;64.72;96969.94;5020059;28;20042;-54
2023/08/29 03:27:20;;;;;;;10.10;8.25;;;14.20;98.10;;;15.83;64.65;96972.84;5019583;28;20049;-54
2023/08/29 03:29:51;;;;;;;12.32;8.25;;;14.20;98.30;;;15.65;65.14;96968.13;5028018;28;20057;-50
2023/08/29 03:32:19;;;;;;;11.10;7.97;;;14.20;99.60;;;15.80;64.80;96966.03;5027579;28;20425;-55
2023/08/29 03:34:53;;;;;;;9.88;8.75;;;14.20;99.60;;;15.85;64.60;96962.72;5026258;28;20050;-53
2023/08/29 03:37:21;;;;;;;11.75;7.80;;;14.30;99.00;;;15.91;64.58;96961.88;5018447;28;20058;-54
2023/08/29 03:39:48;;;;;;;10.40;8.25;;;14.30;99.10;;;15.92;64.37;96958.97;5012473;28;20405;-55
2023/08/29 03:42:17;;;;;;;11.10;8.75;;;14.30;98.80;;;15.86;64.81;96956.31;5027781;28;20046;-54
2023/08/29 03:44:45;;;;;;;14.00;9.48;;;14.30;99.00;;;15.94;64.53;96953.41;5012429;28;20512;-53
2023/08/29 03:47:12;;;;;;;9.25;8.27;;;14.30;99.20;;;15.93;64.59;96952.56;5008194;28;20072;-50
2023/08/29 03:49:40;;;;;;;11.57;8.85;;;14.40;98.90;;;15.94;64.58;96967.63;5011889;28;20053;-55
2023/08/29 03:52:08;;;;;;;11.00;8.70;;;14.40;98.90;;;15.93;64.92;96963.28;5012055;28;20057;-51
2023/08/29 03:54:36;;;;;;;12.23;9.95;;;14.40;98.90;;;15.90;64.79;96962.91;5010640;28;20049;-55
2023/08/29 03:57:04;;;;;;;11.75;10.23;;;14.30;99.90;;;15.92;64.80;96961.66;5027240;28;20056;-53
2023/08/29 03:59:31;;;;;;;13.65;10.40;;;14.30;99.30;;;15.89;64.92;96958.56;5026477;28;20450;-55
2023/08/29 04:02:00;;;;;;;10.38;9.27;;;14.30;99.90;;;15.97;64.63;96962.88;5010059;28;20069;-54
2023/08/29 04:04:29;;;;;;;13.30;9.25;;;14.30;99.60;;;15.99;64.83;96956.25;5010512;28;20057;-54
2023/08/29 04:06:57;;;;;;;13.35;10.27;;;14.40;98.70;;;15.92;64.76;96961.66;5026610;28;20053;-55
2023/08/29 04:09:24;;;;;;;11.98;9.20;;;14.30;99.50;;;15.90;65.03;96954.88;5027266;28;20059;-51
2023/08/29 04:11:52;;;;;;;10.50;8.63;;;14.30;99.50;;;15.90;64.94;96955.69;5018467;28;20053;-54
2023/08/29 04:14:20;;;;;;;10.25;8.88;;;14.30;99.90;;;15.86;65.22;96962.50;5011881;28;20057;-53
2023/08/29 04:16:48;;;;;;;10.02;8.05;;;14.30;99.90;;;15.75;65.45;96957.78;5018763;28;20049;-53
2023/08/29 04:19:16;;;;;;;11.10;8.52;;;14.20;99.90;;;15.80;65.20;96952.63;5010038;28;20442;-53
2023/08/29 04:21:44;;;;;;;11.30;8.88;;;14.20;99.90;;;15.78;65.17;96948.47;5010378;28;20049;-53
2023/08/29 04:24:11;;;;;;;10.75;9.18;;;14.20;99.90;;;15.80;65.39;96949.09;5026587;28;20049;-54
2023/08/29 04:26:39;;;;;;;13.32;8.88;;;14.20;99.90;;;15.75;65.51;96952.41;5018700;28;20050;-50
2023/08/29 04:29:07;;;;;;;13.70;8.50;;;14.20;99.90;;;15.62;65.97;96958.59;5010710;28;20048;-54
2023/08/29 04:31:35;;;;;;;10.35;9.23;;;14.20;99.90;;;15.69;65.79;96955.91;5011416;28;20516;-52
2023/08/29 04:34:03;;;;;;;11.13;9.98;;;14.20;99.90;;;15.69;65.73;96956.75;5011193;28;20038;-53
2023/08/29 04:36:30;;;;;;;11.85;9.98;;;14.20;99.90;;;15.70;65.61;96958.41;5011578;28;20050;-55
2023/08/29 04:38:58;;;;;;;11.90;10.63;;;14.20;99.90;;;15.62;66.06;96960.47;5026711;28;20064;-51
2023/08/29 04:41:25;;;;;;;12.82;9.20;;;14.20;99.90;;;15.68;65.91;96968.53;5009786;28;20212;-54
2023/08/29 04:43:53;;;;;;;15.45;11.13;;;14.20;99.90;;;15.67;65.82;96963.34;5011338;28;20033;-52
2023/08/29 04:46:21;;;;;;;11.18;8.98;;;14.20;99.90;;;15.71;65.85;96967.28;5026297;28;20053;-51
2023/08/29 04:48:50;;;;;;;12.43;9.48;;;14.20;99.90;;;15.68;65.85;96956.94;5002344;28;20053;-55
2023/08/29 04:51:18;;;;;;;11.30;9.73;;;14.20;99.90;;;15.73;65.94;96960.69;5026452;28;20502;-53
2023/08/29 04:53:47;;;;;;;11.68;8.98;;;14.20;99.90;;;15.76;65.80;96959.44;5009992;28;20526;-53
2023/08/29 04:56:14;;;;;;;10.98;9.43;;;14.20;99.90;;;15.72;65.84;96963.53;5026291;28;20050;-53
2023/08/29 04:58:42;;;;;;;12.63;10.52;;;14.10;99.90;;;15.73;65.81;96965.22;5011123;28;20042;-54
2023/08/29 05:01:10;;;;;;;10.48;9.30;;;14.20;99.90;;;15.63;66.30;96957.59;5009873;28;20046;-53
2023/08/29 05:03:37;;;;;;;12.32;10.25;;;14.10;99.90;;;15.62;66.45;96955.91;5025505;28;20053;-49
2023/08/29 05:06:05;;;;;;;12.13;9.88;;;14.10;99.90;;;15.59;66.55;96956.38;5009777;28;20065;-53
2023/08/29 05:08:36;;;;;;;11.68;10.20;;;14.10;99.90;;;15.46;66.80;96954.50;5009166;28;20053;-52
2023/08/29 05:11:04;;;;;;;11.15;9.60;;;14.00;99.90;;;15.44;66.95;96953.91;5026472;28;20517;-54
2023/08/29 05:13:32;;;;;;;12.32;9.75;;;14.00;99.90;;;15.52;66.86;96952.84;5026241;28;20050;-53
2023/08/29 05:16:00;;;;;;;12.30;10.23;;;14.00;99.90;;;15.54;66.64;96956.97;5011012;28;20046;-52
2023/08/29 05:18:27;;;;;;;11.15;9.55;;;14.00;99.90;;;15.54;66.92;96945.44;5017664;28;20049;-54
2023/08/29 05:20:58;;;;;;;12.10;9.20;;;14.00;99.90;;;15.54;67.10;96954.28;5026017;28;20049;-52
2023/08/29 05:23:25;;;;;;;12.57;10.05;;;14.00;99.90;;;15.56;66.87;96956.75;5026177;28;20421;-55
2023/08/29 05:25:53;;;;;;;13.23;10.88;;;14.10;99.90;;;15.63;66.83;96956.78;5002708;28;20041;-53
2023/08/29 05:28:20;;;;;;;12.38;10.20;;;14.10;99.90;;;15.65;66.74;96965.44;5011077;28;20038;-54
2023/08/29 05:30:48;;;;;;;10.68;9.48;;;14.10;99.90;;;15.67;66.60;96963.34;5010588;28;20046;-53
2023/08/29 05:33:16;;;;;;;11.65;9.50;;;14.10;99.90;;;15.75;66.51;96957.78;5010703;28;20413;-51
2023/08/29 05:35:43;;;;;;;12.23;9.55;;;14.20;99.90;;;15.72;66.59;96966.22;5010685;28;20525;-53
2023/08/29 05:38:11;;;;;;;10.88;9.13;;;14.20;99.90;;;15.74;66.48;96954.28;5010714;28;20057;-52
2023/08/29 05:40:38;;;;;;;11.85;9.10;;;14.20;99.90;;;15.84;66.30;96958.38;5010516;28;20057;-53
2023/08/29 05:43:06;;;;;;;11.25;8.85;;;14.30;99.90;;;15.81;66.31;96956.13;5010531;28;20517;-53
2023/08/29 05:45:34;;;;;;;11.20;9.55;;;14.30;99.90;;;15.85;66.29;96958.16;5010631;28;20445;-52
2023/08/29 05:48:01;;;;;;;10.95;8.48;;;14.30;99.90;;;15.77;66.28;96960.28;5010639;28;20414;-53
2023/08/29 05:50:29;;;;;;;11.82;8.77;;;14.30;99.90;;;15.75;66.25;96965.84;5010326;28;20050;-51
2023/08/29 05:52:56;;;;;;;10.15;8.40;;;14.20;99.90;;;15.80;66.28;96960.69;5010996;28;20050;-53
2023/08/29 05:55:24;;;;;;;10.60;9.10;;;14.20;99.90;;;15.72;66.50;96961.69;5010679;28;20050;-54
2023/08/29 05:57:52;;;;;;;9.90;8.30;;;14.30;99.90;;;15.73;66.61;96962.53;5009148;28;20050;-53
2023/08/29 06:00:19;;;;;;;11.70;8.88;;;14.30;99.90;;;15.79;66.21;96960.88;5010237;28;20052;-53
2023/08/29 06:02:48;;;;;;;9.75;8.23;;;14.30;99.90;;;15.85;66.25;96968.91;5010353;28;20046;-52
2023/08/29 06:05:15;;;;;;;10.80;8.18;;;14.40;99.90;;;15.86;66.18;96967.88;5010686;28;20042;-53
2023/08/29 06:07:43;;;;;;;8.95;8.05;;;14.40;99.90;;;15.83;66.34;96964.78;5010346;28;20394;-51
2023/08/29 06:10:10;;;;;;;8.32;7.53;;;14.40;99.90;;;15.84;66.51;96967.28;5010592;28;20054;-52
2023/08/29 06:12:38;;;;;;;9.18;8.27;;;14.40;99.90;;;15.73;66.65;96968.72;5010092;28;20050;-54
2023/08/29 06:15:07;;;;;;;10.68;7.68;;;14.30;99.90;;;15.72;66.79;96966.22;5017092;28;20061;-53
2023/08/29 06:17:34;;;;;;;9.82;8.10;;;14.30;99.90;;;15.77;66.76;96963.78;5010394;28;20421;-52
2023/08/29 06:20:03;;;;;;;9.90;7.53;;;14.30;99.90;;;15.76;66.97;96964.81;5013433;28;20497;-53
2023/08/29 06:22:31;;;;;;;7.97;7.18;;;14.40;99.90;;;15.78;66.95;96972.63;5013921;28;20049;-51
2023/08/29 06:24:58;;;;;;;9.88;7.75;;;14.40;99.90;;;15.72;67.08;96968.91;5013999;28;20034;-51
2023/08/29 06:27:26;;;;;;;9.88;8.10;;;14.30;99.90;;;15.71;67.14;96975.31;5029050;28;20046;-52
2023/08/29 06:29:53;;;;;;;8.10;7.30;;;14.30;99.90;;;15.79;67.00;96968.94;5013403;28;20065;-54
2023/08/29 06:32:21;;;;;;;10.30;7.72;;;14.40;99.90;;;15.80;66.93;96975.94;5013651;28;20061;-49
2023/08/29 06:34:49;;;;;;;8.48;7.43;;;14.40;99.90;;;15.69;67.39;96972.03;5020790;28;20050;-52
2023/08/29 06:37:16;;;;;;;8.40;7.60;;;14.30;99.90;;;15.76;67.04;96983.59;5009970;28;20121;-51
2023/08/29 06:39:44;;;;;;;8.93;7.43;;;14.30;99.90;;;15.77;67.10;96984.41;5013267;28;20501;-54
2023/08/29 06:42:12;;;;;;;8.25;7.32;;;14.30;99.90;;;15.83;67.13;96984.38;5013548;28;20378;-52
2023/08/29 06:44:39;;;;;;;8.75;7.85;;;14.40;99.90;;;15.85;67.38;96993.06;5013199;28;20046;-53
2023/08/29 06:47:07;;;;;;;9.73;8.23;;;14.40;99.90;;;15.82;67.36;96998.00;5013590;28;20520;-53
2023/08/29 06:49:35;;;;;;;8.57;7.55;;;14.40;99.90;;;15.93;66.91;97005.41;5012906;28;20520;-52
2023/08/29 06:52:02;;;;;;;10.65;8.18;;;14.50;99.90;;;15.84;67.35;96999.47;5012942;28;20037;-52
2023/08/29 06:54:30;;;;;;;9.65;8.50;;;14.40;99.90;;;15.77;67.59;97005.88;5013289;28;20393;-54
2023/08/29 06:56:58;;;;;;;10.63;8.27;;;14.30;99.90;;;15.75;67.97;97008.78;5013492;28;20037;-52
2023/08/29 06:59:26;;;;;;;10.13;9.15;;;14.30;99.90;;;15.81;67.60;97010.63;5013299;28;20045;-54
2023/08/29 07:01:53;;;;;;;10.15;8.20;;;14.30;99.90;;;15.87;67.91;97017.81;5012867;28;20042;-54
2023/08/29 07:04:21;;;;;;;9.30;7.95;;;14.30;99.90;;;15.82;67.86;97020.34;5013185;28;20041;-51
2023/08/29 07:06:48;;;;;;;11.18;8.70;;;14.30;99.90;;;15.85;68.10;97027.94;5013112;28;20050;-55
2023/08/29 07:09:16;;;;;;;9.85;8.35;;;14.30;99.90;;;15.93;67.84;97021.53;5013155;28;20506;-52
2023/08/29 07:11:44;;;;;;;12.43;8.68;;;14.30;99.90;;;15.91;67.82;97023.59;5012829;28;20438;-50
2023/08/29 07:14:12;;;;;;;11.23;10.00;;;14.30;99.90;;;15.78;68.22;97027.16;5013213;28;20053;-53
2023/08/29 07:16:39;;;;;;;11.13;9.93;;;14.30;99.90;;;15.82;68.14;97033.75;5013065;28;20050;-49
2023/08/29 07:19:07;;;;;;;11.73;10.55;;;14.20;99.90;;;15.91;68.17;97031.66;5013016;28;20049;-51
2023/08/29 07:21:34;;;;;;;11.75;9.90;;;14.30;99.90;;;15.90;68.17;97038.06;5012487;28;20034;-51
2023/08/29 07:24:03;;;;;;;11.57;9.40;;;14.20;99.90;;;15.89;68.34;97039.09;5012459;28;20038;-50
2023/08/29 07:26:31;;;;;;;10.82;8.98;;;14.30;99.90;;;15.91;68.23;97040.53;5027784;28;20050;-54
2023/08/29 07:28:58;;;;;;;13.70;9.80;;;14.30;99.90;;;15.97;68.33;97038.03;5012423;28;20052;-50
2023/08/29 07:31:26;;;;;;;10.30;9.18;;;14.30;99.90;;;16.03;68.03;97039.88;5012524;28;20498;-47
2023/08/29 07:33:53;;;;;;;10.55;9.05;;;14.30;99.90;;;15.92;68.53;97047.56;5010757;28;20416;-53
2023/08/29 07:36:21;;;;;;;11.45;9.10;;;14.30;99.90;;;15.86;68.65;97056.44;5012237;28;20395;-49
2023/08/29 07:38:49;;;;;;;12.82;10.43;;;14.20;99.90;;;15.86;68.94;97052.94;5012328;28;20049;-51
2023/08/29 07:41:17;;;;;;;10.90;9.77;;;14.20;99.90;;;15.91;68.98;97048.56;5012313;28;20065;-51
2023/08/29 07:43:44;;;;;;;11.55;10.30;;;14.30;99.90;;;15.96;68.73;97050.66;5011479;28;20045;-53
2023/08/29 07:46:12;;;;;;;12.75;10.20;;;14.20;99.90;;;15.86;69.33;97058.31;5012572;28;20034;-53
2023/08/29 07:48:40;;;;;;;11.90;10.55;;;14.20;99.90;;;15.81;69.01;97058.94;5012175;28;20053;-51
2023/08/29 07:51:07;;;;;;;12.73;10.77;;;14.20;99.90;;;15.77;69.56;97055.00;5004494;28;20258;-50
2023/08/29 07:53:35;;;;;;;12.55;10.85;;;14.20;99.90;;;15.84;69.45;97052.31;5012187;28;20050;-48
2023/08/29 07:56:03;;;;;;;14.35;11.50;;;14.20;99.90;;;15.88;69.57;97064.31;5027670;28;20065;-51
2023/08/29 07:58:32;;;;;;;14.18;11.90;;;14.30;99.90;;;15.84;69.61;97055.84;5012184;28;20077;-53
2023/08/29 08:01:01;;;;;;;12.75;10.73;;;14.20;99.90;;;15.84;69.78;97057.66;5018867;28;20086;-49
2023/08/29 08:03:29;;;;;;;15.50;10.60;;;14.20;99.90;;;15.79;70.02;97068.22;5010836;28;20050;-48
2023/08/29 08:05:57;;;;;;;12.23;11.00;;;14.30;99.90;;;15.79;70.42;97070.91;5012037;28;20041;-53
2023/08/29 08:08:24;;;;;;;12.98;10.25;;;14.30;99.90;;;15.91;70.25;97072.72;5012156;28;20050;-48
2023/08/29 08:10:52;;;;;;;12.77;10.60;;;14.30;99.90;;;15.92;70.33;97069.03;5011907;28;20449;-50
2023/08/29 08:13:19;;;;;;;12.13;10.57;;;14.40;99.90;;;15.79;70.58;97074.41;5011649;28;20179;-51
2023/08/29 08:15:47;;;;;;;12.82;10.80;;;14.30;99.90;;;15.86;70.66;97066.38;5012040;28;20410;-49
2023/08/29 08:18:15;;;;;;;12.40;11.13;;;14.30;99.90;;;15.77;70.79;97063.06;5011505;28;20068;-51
2023/08/29 08:20:42;;;;;;;14.32;10.95;;;14.30;99.90;;;15.87;70.80;97068.00;5011544;28;20060;-50
2023/08/29 08:23:10;;;;;;;11.80;10.15;;;14.30;99.90;;;15.94;70.45;97064.28;5018972;28;20418;-52
2023/08/29 08:25:38;;;;;;;13.32;10.52;;;14.40;99.90;;;15.98;70.53;97072.75;5011926;28;20053;-49
2023/08/29 08:28:06;;;;;;;12.35;10.50;;;14.40;99.90;;;16.06;70.27;97075.19;5011711;28;20042;-54
2023/08/29 08:30:37;;;;;;;12.68;11.38;;;14.50;99.90;;;16.09;70.46;97082.00;5011349;28;20046;-48
2023/08/29 08:33:05;;;;;;;13.32;10.88;;;14.60;99.90;;;16.14;70.50;97079.50;5026463;28;20084;-51
2023/08/29 08:35:33;;;;;;;12.23;9.85;;;14.60;99.90;;;16.19;70.33;97084.25;5011564;28;20042;-47
2023/08/29 08:38:07;;;;;;;14.55;11.77;;;14.70;99.90;;;16.14;70.39;97080.34;5011724;28;20037;-47
2023/08/29 08:40:38;;;;;;;15.50;11.70;;;14.60;99.90;;;16.28;69.91;97080.31;5010951;28;20046;-49
2023/08/29 08:43:08;;;;;;;12.35;9.38;;;14.70;99.90;;;16.36;69.93;97076.56;5009124;28;20109;-48
2023/08/29 08:45:39;;;;;;;13.75;10.57;;;14.80;99.90;;;16.27;69.91;97082.16;5010055;28;20046;-50
2023/08/29 08:48:07;;;;;;;12.85;10.43;;;14.80;99.90;;;16.31;70.21;97093.31;5010112;28;20041;-51
2023/08/29 08:50:36;;;;;;;14.35;10.50;;;14.80;99.90;;;16.29;70.07;97088.16;5011248;28;20049;-53
2023/08/29 08:53:05;;;;;;;11.90;10.10;;;14.80;99.90;;;16.44;70.19;97090.59;5009759;28;20421;-54
2023/08/29 08:55:33;;;;;;;12.55;11.02;;;14.90;99.90;;;16.43;69.74;97083.56;5010339;28;20060;-54
2023/08/29 08:58:01;;;;;;;12.95;11.55;;;14.90;99.90;;;16.54;69.93;97082.91;5010137;28;20049;-51
2023/08/29 09:00:30;;;;;;;12.80;11.02;;;15.00;99.90;;;16.52;70.11;97090.34;5011071;28;20373;-50
2023/08/29 09:02:58;;;;;;;11.45;9.77;;;15.00;99.90;;;16.51;69.92;97093.25;5010883;28;20072;-52
2023/08/29 09:05:26;;;;;;;12.15;10.85;;;15.00;99.90;;;16.49;70.03;97079.19;5011282;28;20494;-50
2023/08/29 09:07:53;;;;;;;11.77;10.18;;;15.00;99.90;;;16.47;70.51;97087.47;5011048;28;20042;-48
2023/08/29 09:10:21;;;;;;;12.73;10.75;;;15.00;99.90;;;16.47;70.35;97090.16;5011291;28;20056;-49
2023/08/29 09:12:54;;;;;;;12.13;10.23;;;15.00;99.90;;;16.63;70.31;97086.16;5010797;28;20061;-49
2023/08/29 09:15:24;;;;;;;12.40;10.45;;;15.10;99.90;;;16.52;70.34;97093.03;5011078;28;20403;-52
2023/08/29 09:17:54;;;;;;;13.45;10.32;;;15.10;99.90;;;16.45;70.65;97086.03;5011305;28;20057;-50
2023/08/29 09:20:28;;;;;;;16.48;11.82;;;15.10;99.90;;;16.67;70.48;97082.03;5009355;28;20050;-48
2023/08/29 09:22:56;;;;;;;11.15;9.77;;;15.20;99.90;;;16.64;70.13;97090.50;5009813;28;20045;-53
2023/08/29 09:25:26;;;;;;;13.73;10.68;;;15.30;99.90;;;16.68;70.22;97083.66;5010941;28;20053;-50
2023/08/29 09:27:55;;;;;;;13.23;10.13;;;15.30;99.90;;;16.77;70.19;97084.25;5010814;28;20046;-49
2023/08/29 09:30:23;;;;;;;11.57;10.38;;;15.40;99.90;;;16.90;70.17;97089.59;5010745;28;20053;-48
2023/08/29 09:32:51;;;;;;;12.85;11.55;;;15.40;99.90;;;16.82;69.96;97089.84;5010347;28;20045;-47
2023/08/29 09:35:22;;;;;;;12.65;11.35;;;15.40;99.90;;;16.82;69.42;97091.69;5009473;28;20041;-51
2023/08/29 09:37:54;;;;;;;12.07;10.88;;;15.40;99.90;;;16.80;69.42;97104.50;5007381;28;20058;-49
2023/08/29 09:40:22;;;;;;;12.75;11.05;;;15.40;99.90;;;16.81;69.28;97092.69;5004602;28;20050;-48
2023/08/29 09:43:01;;;;;;;12.45;11.18;;;15.40;99.90;;;16.96;69.54;97093.28;5010329;28;20049;-50
2023/08/29 09:45:32;;;;;;;13.13;10.73;;;15.60;99.90;;;16.93;69.70;97097.22;5010984;28;20394;-50
2023/08/29 09:48:10;;;;;;;11.77;10.27;;;15.60;99.90;;;16.90;69.37;97097.66;5010795;28;20053;-53
2023/08/29 09:50:40;;;;;;;12.73;10.60;;;15.60;99.90;;;17.00;69.14;97101.72;5010389;28;20046;-54
2023/08/29 09:53:16;;;;;;;12.25;11.00;;;15.60;99.90;;;17.07;68.71;97100.66;5012431;28;20197;-52
2023/08/29 09:55:46;;;;;;;12.13;10.93;;;15.80;99.90;;;17.17;68.74;97096.69;5013392;28;20054;-52
2023/08/29 09:58:15;;;;;;;13.75;11.10;;;15.70;99.90;;;17.20;68.71;97099.78;5014393;28;20057;-53
2023/08/29 10:00:43;;;;;;;12.25;10.63;;;15.80;99.90;;;17.04;68.49;97098.41;5013189;28;20050;-51
2023/08/29 10:03:11;;;;;;;10.63;9.45;;;15.70;99.90;;;16.93;68.58;97096.41;5013052;28;20390;-49
2023/08/29 10:05:43;;;;;;;10.88;9.68;;;15.50;99.90;;;16.96;68.43;97097.84;5014541;28;20121;-55
2023/08/29 10:08:11;;;;;;;10.45;9.43;;;15.50;99.90;;;17.10;68.33;97100.25;5013877;28;20050;-54
2023/08/29 10:10:45;;;;;;;12.25;10.55;;;15.60;99.90;;;17.21;68.22;97097.91;5014111;28;20523;-53
2023/08/29 10:13:14;;;;;;;12.20;10.77;;;15.70;99.90;;;17.04;68.12;97103.81;5014111;28;20421;-53
2023/08/29 10:15:44;;;;;;;11.55;10.45;;;15.70;99.90;;;17.00;68.11;97099.03;5014429;28;20038;-53
2023/08/29 10:18:12;;;;;;;12.15;10.77;;;15.60;99.90;;;17.07;67.98;97097.97;5012953;28;20070;-51
2023/08/29 10:20:43;;;;;;;14.57;11.65;;;15.70;99.90;;;17.21;68.12;97097.91;5012862;28;20524;-53